Time;durP1;ratioP1;P1;durP2;ratioP2;P2;SDS_P1;SDS_P2;PMS_P1;PMS_P2;Temp;Humidity;BMP_temperature;BMP_pressure;BME280_temperature;BME280_humidity;BME280_pressure;Samples;Min_cycle;Max_cycle;Signal;HPM_P1;HPM_P2
2021/10/15 00:01:58;;;;;;;32.45;16.08;;;20.20;55.20;;;;;;5008437;28;20045;-55
2021/10/15 00:04:24;;;;;;;31.08;15.73;;;20.20;55.20;;;;;;4992723;28;20041;-56
2021/10/15 00:06:49;;;;;;;33.30;15.25;;;20.20;55.30;;;;;;4984026;28;20034;-51
2021/10/15 00:09:15;;;;;;;30.10;15.02;;;20.20;55.20;;;;;;5000976;28;20030;-56
2021/10/15 00:11:40;;;;;;;29.67;15.30;;;20.10;55.20;;;;;;4999153;28;20030;-53
2021/10/15 00:14:06;;;;;;;30.48;15.10;;;20.20;55.30;;;;;;4997086;28;20044;-56
2021/10/15 00:16:32;;;;;;;25.90;14.38;;;20.10;55.20;;;;;;4993014;28;20103;-53
2021/10/15 00:18:57;;;;;;;29.77;15.32;;;20.10;55.20;;;;;;4994861;28;20152;-57
2021/10/15 00:21:23;;;;;;;31.05;15.32;;;20.10;55.20;;;;;;4989425;28;20031;-54
2021/10/15 00:23:48;;;;;;;28.02;15.10;;;20.10;55.20;;;;;;4989146;28;20351;-56
2021/10/15 00:26:14;;;;;;;30.08;14.52;;;20.10;55.20;;;;;;4986067;28;20023;-50
2021/10/15 00:28:39;;;;;;;29.48;14.50;;;20.10;55.20;;;;;;4985410;28;20674;-51
2021/10/15 00:31:05;;;;;;;27.05;14.20;;;20.10;55.20;;;;;;4993312;28;20034;-54
2021/10/15 00:33:31;;;;;;;26.52;14.00;;;20.10;55.20;;;;;;4993254;28;20350;-54
2021/10/15 00:35:57;;;;;;;24.13;12.68;;;20.10;55.20;;;;;;4991582;28;20030;-57
2021/10/15 00:38:22;;;;;;;26.20;14.23;;;20.10;55.20;;;;;;5008153;28;20022;-58
2021/10/15 00:40:48;;;;;;;25.02;13.73;;;20.10;55.20;;;;;;4984939;28;20098;-57
2021/10/15 00:43:14;;;;;;;26.85;14.55;;;20.10;55.20;;;;;;4998874;28;20410;-52
2021/10/15 00:45:40;;;;;;;25.88;14.27;;;20.00;55.10;;;;;;4982974;28;20353;-53
2021/10/15 00:48:06;;;;;;;27.98;13.82;;;20.10;55.20;;;;;;5001558;28;20089;-56
2021/10/15 00:50:31;;;;;;;29.77;14.52;;;20.00;55.10;;;;;;4995125;28;20338;-59
2021/10/15 00:52:57;;;;;;;25.42;12.88;;;20.00;55.10;;;;;;4993065;28;20412;-49
2021/10/15 00:55:23;;;;;;;22.50;12.40;;;20.00;55.10;;;;;;4987474;28;20942;-50
2021/10/15 00:57:48;;;;;;;24.02;13.43;;;20.00;55.10;;;;;;4987856;28;20773;-57
2021/10/15 01:00:14;;;;;;;25.55;12.50;;;20.00;55.10;;;;;;4984345;28;20129;-58
2021/10/15 01:02:43;;;;;;;26.33;12.80;;;20.00;55.20;;;;;;4994568;28;20017;-56
2021/10/15 01:05:09;;;;;;;26.10;12.77;;;20.00;55.10;;;;;;4995413;28;20030;-53
2021/10/15 01:07:36;;;;;;;24.50;13.10;;;20.00;55.10;;;;;;4992447;28;20034;-54
2021/10/15 01:10:02;;;;;;;23.42;12.52;;;20.00;55.10;;;;;;4994179;28;20022;-55
2021/10/15 01:12:29;;;;;;;21.90;11.65;;;20.00;55.10;;;;;;4997266;28;20026;-55
2021/10/15 01:14:55;;;;;;;21.20;11.63;;;20.00;55.10;;;;;;4996349;28;20473;-51
2021/10/15 01:17:21;;;;;;;24.73;12.27;;;20.00;55.10;;;;;;4979414;28;20030;-58
2021/10/15 01:19:54;;;;;;;24.00;12.50;;;20.00;55.10;;;;;;4974569;28;20034;-56
2021/10/15 01:22:20;;;;;;;22.90;11.80;;;20.00;55.10;;;;;;4988531;28;20042;-53
2021/10/15 01:24:46;;;;;;;22.10;11.25;;;19.90;55.10;;;;;;4990058;28;20034;-56
2021/10/15 01:27:11;;;;;;;20.48;11.27;;;19.90;55.10;;;;;;4987177;28;20080;-57
2021/10/15 01:29:39;;;;;;;22.42;12.05;;;20.00;55.10;;;;;;4991214;28;20441;-58
2021/10/15 01:32:08;;;;;;;22.33;11.73;;;20.00;55.10;;;;;;4987137;28;20035;-54
2021/10/15 01:34:33;;;;;;;22.48;11.57;;;19.90;55.60;;;;;;4974373;28;20019;-50
2021/10/15 01:36:59;;;;;;;23.00;11.55;;;20.00;55.10;;;;;;4992242;28;20164;-52
2021/10/15 01:39:25;;;;;;;20.00;11.20;;;19.90;55.10;;;;;;4990201;28;20405;-54
2021/10/15 01:41:50;;;;;;;20.13;11.25;;;19.90;55.10;;;;;;4993612;28;20029;-58
2021/10/15 01:44:16;;;;;;;20.67;11.05;;;19.90;55.10;;;;;;4995639;28;20066;-55
2021/10/15 01:46:42;;;;;;;20.80;11.02;;;19.90;55.10;;;;;;4982111;28;20034;-58
2021/10/15 01:49:08;;;;;;;20.00;11.52;;;19.90;55.10;;;;;;4988311;28;20031;-55
2021/10/15 01:51:33;;;;;;;20.88;10.80;;;19.90;55.20;;;;;;4992483;28;20034;-57
2021/10/15 01:53:59;;;;;;;21.02;10.73;;;19.90;55.20;;;;;;4984980;28;20617;-51
2021/10/15 01:56:25;;;;;;;19.02;10.77;;;19.90;55.20;;;;;;4995368;28;20030;-59
2021/10/15 01:58:50;;;;;;;20.67;10.48;;;19.90;55.20;;;;;;4981650;28;20411;-52
2021/10/15 02:01:16;;;;;;;21.08;11.10;;;19.90;55.20;;;;;;4993834;28;20052;-57
2021/10/15 02:03:41;;;;;;;19.45;10.40;;;19.90;55.20;;;;;;4993097;28;20443;-58
2021/10/15 02:06:07;;;;;;;21.40;10.90;;;19.80;55.10;;;;;;4995203;28;20030;-56
2021/10/15 02:08:33;;;;;;;17.67;9.80;;;19.80;55.20;;;;;;4977935;28;20101;-58
2021/10/15 02:10:58;;;;;;;18.20;9.70;;;19.80;55.20;;;;;;4982654;28;20034;-58
2021/10/15 02:13:24;;;;;;;18.17;10.05;;;19.80;55.20;;;;;;5001078;28;20052;-57
2021/10/15 02:15:50;;;;;;;16.95;9.05;;;19.80;55.20;;;;;;4998150;28;20030;-50
2021/10/15 02:18:17;;;;;;;17.73;9.50;;;19.80;55.20;;;;;;4976959;28;20094;-57
2021/10/15 02:20:43;;;;;;;17.33;9.45;;;19.80;55.20;;;;;;5003245;28;20029;-55
2021/10/15 02:23:09;;;;;;;17.38;9.80;;;19.80;55.20;;;;;;4992445;28;20434;-58
2021/10/15 02:25:35;;;;;;;16.63;8.95;;;19.80;55.20;;;;;;5000145;28;20149;-58
2021/10/15 02:28:00;;;;;;;17.20;9.60;;;19.80;55.20;;;;;;4988664;28;20335;-54
2021/10/15 02:30:26;;;;;;;16.02;8.68;;;19.80;55.20;;;;;;5000662;28;20144;-59
2021/10/15 02:32:52;;;;;;;17.75;9.10;;;19.80;55.80;;;;;;4983769;28;20026;-56
2021/10/15 02:35:18;;;;;;;18.05;9.35;;;19.80;55.30;;;;;;4989375;28;20034;-58
2021/10/15 02:37:44;;;;;;;17.38;9.23;;;19.80;55.30;;;;;;4997327;28;20034;-53
2021/10/15 02:40:10;;;;;;;14.93;8.70;;;19.80;55.30;;;;;;4984823;28;20031;-56
2021/10/15 02:42:36;;;;;;;15.68;9.02;;;19.80;55.30;;;;;;4990254;28;20033;-58
2021/10/15 02:45:03;;;;;;;17.27;8.40;;;19.70;55.20;;;;;;4987816;28;20109;-54
2021/10/15 02:47:29;;;;;;;15.77;8.80;;;19.70;55.30;;;;;;4992483;28;20030;-56
2021/10/15 02:49:55;;;;;;;16.27;8.73;;;19.70;55.20;;;;;;4984020;28;20092;-58
2021/10/15 02:52:20;;;;;;;14.23;8.25;;;19.70;55.30;;;;;;4979729;28;20038;-56
2021/10/15 02:54:46;;;;;;;16.60;9.18;;;19.70;55.30;;;;;;4997068;28;20486;-58
2021/10/15 02:57:11;;;;;;;16.05;8.93;;;19.70;55.30;;;;;;4997425;28;20110;-57
2021/10/15 02:59:37;;;;;;;13.75;8.25;;;19.70;55.30;;;;;;4987138;28;20118;-56
2021/10/15 03:02:03;;;;;;;15.45;8.80;;;19.70;55.30;;;;;;4984488;28;20042;-56
2021/10/15 03:04:28;;;;;;;15.68;8.57;;;19.70;55.40;;;;;;4992115;28;20037;-55
2021/10/15 03:06:54;;;;;;;14.48;7.90;;;19.70;55.40;;;;;;4984658;28;20682;-56
2021/10/15 03:09:19;;;;;;;14.75;7.93;;;19.70;55.40;;;;;;4988876;28;20512;-58
2021/10/15 03:11:45;;;;;;;15.77;8.60;;;19.70;55.50;;;;;;4988808;28;20050;-57
2021/10/15 03:14:10;;;;;;;13.93;8.15;;;19.60;55.40;;;;;;4992108;28;20037;-53
2021/10/15 03:16:36;;;;;;;14.13;8.20;;;19.70;55.50;;;;;;4986401;28;20027;-55
2021/10/15 03:19:02;;;;;;;13.20;7.63;;;19.60;55.40;;;;;;4989849;28;20109;-58
2021/10/15 03:21:27;;;;;;;14.05;7.65;;;19.60;55.50;;;;;;4977810;28;20050;-56
2021/10/15 03:23:53;;;;;;;12.18;7.28;;;19.60;55.50;;;;;;4996124;28;20137;-54
2021/10/15 03:26:19;;;;;;;14.10;7.82;;;19.60;55.50;;;;;;4988560;28;20043;-54
2021/10/15 03:28:44;;;;;;;14.77;8.10;;;19.60;55.50;;;;;;5001112;28;20585;-56
2021/10/15 03:31:10;;;;;;;14.50;7.78;;;19.60;55.50;;;;;;4981000;28;20043;-52
2021/10/15 03:33:35;;;;;;;14.80;7.68;;;19.60;55.50;;;;;;4990198;28;20025;-57
2021/10/15 03:36:01;;;;;;;13.20;7.55;;;19.60;55.50;;;;;;4979470;28;20137;-53
2021/10/15 03:38:26;;;;;;;13.52;7.90;;;19.60;55.50;;;;;;4985578;28;20049;-54
2021/10/15 03:40:52;;;;;;;13.07;7.15;;;19.60;55.50;;;;;;4989581;28;20370;-55
2021/10/15 03:43:18;;;;;;;11.90;6.75;;;19.60;55.50;;;;;;4991457;28;20034;-56
2021/10/15 03:45:43;;;;;;;15.25;8.00;;;19.60;55.50;;;;;;4988311;28;20632;-57
2021/10/15 03:48:09;;;;;;;13.70;7.25;;;19.60;55.50;;;;;;4990420;28;20133;-55
2021/10/15 03:50:34;;;;;;;12.55;7.15;;;19.60;55.50;;;;;;4980160;28;20077;-53
2021/10/15 03:53:00;;;;;;;13.35;6.75;;;19.60;55.50;;;;;;4989213;28;20026;-55
2021/10/15 03:55:26;;;;;;;13.15;7.10;;;19.60;55.50;;;;;;4992839;28;20042;-56
2021/10/15 03:57:52;;;;;;;12.95;6.18;;;19.60;55.50;;;;;;5000274;28;20026;-56
2021/10/15 04:00:18;;;;;;;12.30;6.55;;;19.60;55.60;;;;;;4996067;28;20439;-55
2021/10/15 04:02:45;;;;;;;10.80;6.53;;;19.60;55.70;;;;;;4986233;28;20054;-57
2021/10/15 04:05:12;;;;;;;10.95;5.95;;;19.60;55.70;;;;;;4991623;28;20026;-56
2021/10/15 04:07:38;;;;;;;10.52;6.20;;;19.60;55.80;;;;;;4989008;28;20031;-57
2021/10/15 04:10:06;;;;;;;9.57;5.72;;;19.70;55.80;;;;;;4991620;28;20033;-53
2021/10/15 04:12:32;;;;;;;10.68;6.45;;;19.60;55.80;;;;;;4993335;28;20030;-52
2021/10/15 04:14:58;;;;;;;10.23;5.97;;;19.60;55.80;;;;;;4981767;28;20037;-56
2021/10/15 04:17:23;;;;;;;11.20;6.05;;;19.60;56.40;;;;;;4992995;28;20030;-58
2021/10/15 04:19:49;;;;;;;10.30;6.22;;;19.60;55.80;;;;;;4987411;28;20666;-55
2021/10/15 04:22:16;;;;;;;10.52;6.07;;;19.60;55.90;;;;;;4984859;28;20149;-54
2021/10/15 04:24:42;;;;;;;8.82;5.65;;;19.60;55.90;;;;;;4986455;28;20125;-53
2021/10/15 04:27:07;;;;;;;9.65;6.10;;;19.60;55.90;;;;;;4995276;28;20140;-56
2021/10/15 04:29:33;;;;;;;11.80;6.07;;;19.60;56.00;;;;;;4983820;28;20058;-59
2021/10/15 04:31:59;;;;;;;11.00;5.95;;;19.60;56.00;;;;;;4992503;28;20042;-56
2021/10/15 04:34:25;;;;;;;10.73;6.05;;;19.60;56.00;;;;;;4983116;28;20109;-57
2021/10/15 04:36:51;;;;;;;10.52;5.88;;;19.60;56.00;;;;;;4988696;28;20042;-56
2021/10/15 04:39:17;;;;;;;10.07;6.05;;;19.60;56.00;;;;;;4984347;28;20045;-59
2021/10/15 04:41:42;;;;;;;9.88;5.40;;;19.60;56.20;;;;;;4991600;28;20359;-57
2021/10/15 04:44:08;;;;;;;10.10;5.43;;;19.60;56.10;;;;;;4986294;28;20092;-57
2021/10/15 04:46:34;;;;;;;11.45;6.15;;;19.60;56.10;;;;;;4992176;28;20040;-57
2021/10/15 04:49:00;;;;;;;10.50;5.82;;;19.60;56.20;;;;;;4990341;28;20030;-58
2021/10/15 04:51:25;;;;;;;11.07;5.90;;;19.60;56.20;;;;;;4978658;28;21052;-59
2021/10/15 04:53:51;;;;;;;10.73;5.78;;;19.60;56.20;;;;;;4981649;28;20162;-56
2021/10/15 04:56:17;;;;;;;10.02;5.65;;;19.60;56.30;;;;;;4990933;28;20088;-59
2021/10/15 04:58:42;;;;;;;9.88;5.70;;;19.60;56.30;;;;;;4976471;28;20026;-55
2021/10/15 05:01:08;;;;;;;8.52;5.28;;;19.60;56.30;;;;;;4977628;28;20126;-56
2021/10/15 05:03:33;;;;;;;7.78;4.95;;;19.60;56.40;;;;;;4979351;28;20039;-55
2021/10/15 05:05:59;;;;;;;9.10;5.32;;;19.60;56.30;;;;;;4993565;28;20042;-59
2021/10/15 05:08:30;;;;;;;9.85;5.45;;;19.60;56.40;;;;;;4991347;28;20422;-58
2021/10/15 05:10:56;;;;;;;8.43;5.03;;;19.60;56.40;;;;;;4989553;28;20137;-59
2021/10/15 05:13:22;;;;;;;9.48;5.75;;;19.60;56.40;;;;;;4984555;28;20097;-55
2021/10/15 05:15:47;;;;;;;8.43;4.55;;;19.50;56.30;;;;;;4992323;28;20761;-54
2021/10/15 05:18:17;;;;;;;8.48;5.10;;;19.50;56.30;;;;;;4982830;28;20114;-57
2021/10/15 05:20:43;;;;;;;10.70;5.07;;;19.60;56.40;;;;;;4986156;28;20125;-58
2021/10/15 05:23:10;;;;;;;8.90;5.07;;;19.50;56.40;;;;;;4980852;28;20042;-58
2021/10/15 05:25:37;;;;;;;10.43;4.65;;;19.60;56.40;;;;;;4987051;28;20030;-55
2021/10/15 05:28:04;;;;;;;9.27;4.88;;;19.60;56.40;;;;;;4996945;28;20101;-57
2021/10/15 05:30:30;;;;;;;8.95;4.95;;;19.50;56.40;;;;;;4986343;28;20166;-59
2021/10/15 05:32:56;;;;;;;7.65;4.75;;;19.50;56.40;;;;;;4990612;28;20042;-59
2021/10/15 05:35:21;;;;;;;8.35;4.38;;;19.50;56.40;;;;;;4981253;28;20050;-55
2021/10/15 05:37:47;;;;;;;8.45;5.53;;;19.60;56.50;;;;;;4984293;28;20889;-56
2021/10/15 05:40:13;;;;;;;8.18;5.10;;;19.60;57.10;;;;;;4982830;28;20068;-58
2021/10/15 05:42:50;;;;;;;10.13;5.60;;;19.80;56.60;;;;;;4984056;28;20030;-58
2021/10/15 05:45:17;;;;;;;8.55;5.05;;;19.90;56.50;;;;;;4985228;28;20038;-58
2021/10/15 05:47:42;;;;;;;9.70;5.20;;;20.10;56.70;;;;;;4986736;28;20066;-52
2021/10/15 05:50:09;;;;;;;13.75;5.75;;;20.30;56.80;;;;;;4995139;28;20088;-56
2021/10/15 05:52:39;;;;;;;10.07;5.47;;;20.50;56.80;;;;;;4989636;28;20040;-49
2021/10/15 06:00:04;;;;;;;8.60;5.00;;;21.10;56.40;;;;;;4982969;28;20169;-54
2021/10/15 06:02:36;;;;;;;7.97;4.95;;;21.20;56.20;;;;;;4993309;28;20120;-52
2021/10/15 06:15:46;;;;;;;5.07;2.90;;;21.80;55.70;;;;;;4998593;28;20131;-59
2021/10/15 06:18:18;;;;;;;5.85;2.97;;;21.70;55.90;;;;;;4993519;28;20038;-54
2021/10/15 06:20:44;;;;;;;5.60;3.20;;;21.70;56.10;;;;;;4985157;28;20030;-58
2021/10/15 06:23:10;;;;;;;5.78;2.83;;;21.60;56.20;;;;;;4990439;28;20041;-56
2021/10/15 06:25:36;;;;;;;7.75;4.10;;;21.60;56.20;;;;;;4988104;28;20053;-54
2021/10/15 06:28:03;;;;;;;4.97;3.30;;;21.70;56.60;;;;;;4985262;28;20035;-58
2021/10/15 06:30:30;;;;;;;5.03;3.08;;;22.00;56.10;;;;;;4985294;28;20042;-58
2021/10/15 06:32:56;;;;;;;4.00;2.45;;;22.10;55.80;;;;;;4986542;28;20088;-58
2021/10/15 06:35:22;;;;;;;4.75;2.63;;;22.10;56.00;;;;;;4994146;28;20782;-57
2021/10/15 06:37:48;;;;;;;4.57;2.50;;;22.00;56.30;;;;;;4980194;28;20090;-58
2021/10/15 06:40:14;;;;;;;8.00;3.15;;;22.00;56.30;;;;;;4991345;28;20053;-52
2021/10/15 06:42:40;;;;;;;5.00;2.78;;;22.00;56.50;;;;;;4987687;28;20038;-56
2021/10/15 06:45:06;;;;;;;4.97;2.78;;;22.20;56.60;;;;;;4991077;28;20117;-58
2021/10/15 06:47:32;;;;;;;5.15;2.67;;;22.10;56.70;;;;;;4978553;28;20038;-52
2021/10/15 06:49:57;;;;;;;4.57;2.50;;;22.10;56.60;;;;;;4999218;28;20104;-57
2021/10/15 06:52:23;;;;;;;5.53;2.60;;;22.10;56.70;;;;;;4988474;28;20040;-57
2021/10/15 06:54:49;;;;;;;4.82;2.80;;;22.10;56.80;;;;;;4991011;28;20047;-55
2021/10/15 06:57:15;;;;;;;4.28;2.55;;;22.10;57.00;;;;;;4991590;28;20071;-56
2021/10/15 06:59:40;;;;;;;4.95;2.75;;;22.10;56.90;;;;;;4998259;28;20101;-53
2021/10/15 07:02:07;;;;;;;4.63;2.60;;;22.10;56.70;;;;;;4990972;28;20035;-55
2021/10/15 07:04:33;;;;;;;4.97;2.63;;;22.10;56.70;;;;;;4998591;28;20080;-53
2021/10/15 07:06:58;;;;;;;4.90;2.55;;;22.20;56.70;;;;;;4990938;28;20026;-58
2021/10/15 07:09:24;;;;;;;4.68;2.58;;;22.10;56.60;;;;;;4996916;28;20044;-58
2021/10/15 07:11:50;;;;;;;4.78;2.60;;;22.10;56.90;;;;;;4995393;28;20034;-58
2021/10/15 07:14:16;;;;;;;4.63;2.60;;;22.30;57.40;;;;;;4991499;28;20554;-54
2021/10/15 07:16:42;;;;;;;4.57;2.50;;;22.30;57.20;;;;;;5000709;28;20038;-54
2021/10/15 07:19:08;;;;;;;4.47;2.65;;;22.40;57.10;;;;;;4988447;28;20034;-52
2021/10/15 07:21:34;;;;;;;3.67;2.30;;;22.40;57.10;;;;;;4980624;28;20027;-58
2021/10/15 07:24:00;;;;;;;4.95;2.85;;;22.40;57.00;;;;;;4998150;28;20026;-51
2021/10/15 07:26:26;;;;;;;3.83;2.20;;;22.40;57.00;;;;;;4991911;28;20076;-57
2021/10/15 07:28:51;;;;;;;5.32;2.53;;;22.40;57.00;;;;;;4991642;28;20462;-58
2021/10/15 07:31:17;;;;;;;4.60;2.10;;;22.40;57.00;;;;;;4996020;28;20030;-54
2021/10/15 07:33:43;;;;;;;4.70;2.28;;;22.40;56.90;;;;;;4998309;28;20119;-52
2021/10/15 07:36:09;;;;;;;5.00;2.75;;;22.40;56.80;;;;;;4987974;28;20062;-57
2021/10/15 07:38:36;;;;;;;5.80;2.60;;;22.40;56.50;;;;;;4998776;28;20037;-58
2021/10/15 07:41:03;;;;;;;4.63;2.33;;;22.50;57.30;;;;;;4986343;28;20452;-59
2021/10/15 07:43:28;;;;;;;4.07;2.17;;;22.60;57.10;;;;;;5004257;28;20068;-58
2021/10/15 07:45:54;;;;;;;4.28;2.38;;;22.60;56.90;;;;;;4998182;28;20038;-55
2021/10/15 07:48:20;;;;;;;3.58;2.22;;;22.60;56.80;;;;;;4996752;28;20031;-48
2021/10/15 07:50:45;;;;;;;3.92;2.28;;;22.70;56.60;;;;;;4982716;28;20062;-54
2021/10/15 07:53:11;;;;;;;3.83;2.28;;;22.60;56.80;;;;;;4992417;28;20802;-52
2021/10/15 07:55:36;;;;;;;3.97;2.15;;;22.60;56.70;;;;;;4997591;28;20451;-58
2021/10/15 07:58:02;;;;;;;3.90;2.20;;;22.60;56.60;;;;;;4997104;28;20027;-52
2021/10/15 08:00:28;;;;;;;3.45;2.10;;;22.60;56.70;;;;;;4988651;28;20620;-55
2021/10/15 08:02:55;;;;;;;3.40;1.98;;;22.70;56.60;;;;;;4982832;28;20041;-58
2021/10/15 08:05:21;;;;;;;4.00;2.00;;;22.60;56.30;;;;;;4991597;28;20623;-52
2021/10/15 08:07:47;;;;;;;3.05;1.95;;;22.60;56.30;;;;;;4991648;28;20029;-57
2021/10/15 08:10:14;;;;;;;4.07;2.30;;;22.80;57.00;;;;;;4981504;28;20029;-57
2021/10/15 08:12:40;;;;;;;3.55;1.98;;;22.80;56.80;;;;;;4989874;28;20410;-58
2021/10/15 08:15:10;;;;;;;3.35;1.80;;;22.90;56.70;;;;;;4990750;28;20049;-55
2021/10/15 08:17:36;;;;;;;3.50;2.20;;;22.90;56.50;;;;;;4988760;28;20026;-57
2021/10/15 08:20:03;;;;;;;3.67;2.00;;;22.90;56.60;;;;;;4988687;28;20049;-56
2021/10/15 08:22:29;;;;;;;3.45;1.98;;;22.90;56.50;;;;;;4994713;28;20053;-58
2021/10/15 08:24:55;;;;;;;3.92;2.08;;;22.90;56.90;;;;;;5004829;28;20038;-51
2021/10/15 08:27:20;;;;;;;3.78;2.10;;;22.90;56.70;;;;;;5009838;28;20377;-51
2021/10/15 08:29:46;;;;;;;3.40;2.10;;;22.90;56.60;;;;;;4991567;28;20145;-54
2021/10/15 08:32:12;;;;;;;3.10;1.90;;;22.90;56.40;;;;;;4980987;28;20038;-53
2021/10/15 08:34:37;;;;;;;3.05;1.77;;;22.90;56.50;;;;;;4993107;28;20085;-55
2021/10/15 08:37:04;;;;;;;3.20;1.90;;;22.90;56.50;;;;;;4990788;28;20110;-58
2021/10/15 08:39:30;;;;;;;4.78;2.08;;;23.00;57.10;;;;;;4987140;28;20039;-54
2021/10/15 08:41:57;;;;;;;3.78;1.90;;;23.10;57.20;;;;;;4990875;28;20088;-59
2021/10/15 08:44:31;;;;;;;3.85;1.90;;;23.10;57.30;;;;;;4990113;28;20053;-57
2021/10/15 08:46:57;;;;;;;5.13;1.92;;;23.20;57.40;;;;;;4988353;28;20039;-58
2021/10/15 08:49:22;;;;;;;2.90;1.77;;;23.20;58.00;;;;;;4989786;28;20036;-57
2021/10/15 08:51:49;;;;;;;3.65;1.80;;;23.20;57.40;;;;;;4987275;28;20619;-57
2021/10/15 08:54:15;;;;;;;3.20;1.80;;;23.20;57.70;;;;;;4996437;28;20048;-54
2021/10/15 08:56:42;;;;;;;3.55;1.88;;;23.20;57.40;;;;;;5006056;28;20125;-50
2021/10/15 08:59:09;;;;;;;2.88;1.70;;;23.20;57.60;;;;;;4998561;28;21472;-56
2021/10/15 09:01:46;;;;;;;3.75;2.03;;;23.20;57.50;;;;;;4995075;28;20507;-56
2021/10/15 09:04:18;;;;;;;3.88;2.15;;;23.20;57.50;;;;;;4993138;28;20042;-52
2021/10/15 09:06:48;;;;;;;3.95;2.00;;;23.20;57.40;;;;;;4980461;28;20256;-52
2021/10/15 09:09:25;;;;;;;3.40;1.83;;;23.30;57.50;;;;;;4989858;28;20053;-58
2021/10/15 09:11:51;;;;;;;3.53;1.67;;;23.40;57.40;;;;;;4984212;28;20034;-58
2021/10/15 09:14:21;;;;;;;2.80;1.70;;;23.40;57.40;;;;;;4992554;28;20157;-57
2021/10/15 09:16:54;;;;;;;3.63;1.88;;;23.40;57.30;;;;;;4986638;28;20212;-58
2021/10/15 09:19:48;;;;;;;2.88;1.80;;;23.40;57.30;;;;;;4987782;28;20039;-57
2021/10/15 09:22:16;;;;;;;2.75;1.58;;;23.50;57.30;;;;;;4986615;28;20042;-53
2021/10/15 09:25:02;;;;;;;3.10;1.80;;;23.50;57.40;;;;;;4997138;28;20018;-52
2021/10/15 09:27:39;;;;;;;3.75;1.60;;;23.50;57.20;;;;;;4985511;28;20113;-59
2021/10/15 09:30:05;;;;;;;2.50;1.50;;;23.50;57.20;;;;;;4997456;28;20037;-56
2021/10/15 09:32:35;;;;;;;2.80;1.48;;;23.50;57.20;;;;;;4971227;28;20042;-54
2021/10/15 09:35:01;;;;;;;2.95;1.70;;;23.50;57.20;;;;;;4975238;28;20026;-54
2021/10/15 09:37:30;;;;;;;3.17;1.77;;;23.50;57.00;;;;;;4965184;28;20014;-52
2021/10/15 09:40:08;;;;;;;3.08;1.70;;;23.50;57.60;;;;;;4961870;28;20866;-58
2021/10/15 09:42:37;;;;;;;2.58;1.50;;;23.50;57.10;;;;;;4961335;28;20169;-54
2021/10/15 09:45:16;;;;;;;2.88;1.67;;;23.60;57.30;;;;;;4966697;28;20912;-58
2021/10/15 09:47:42;;;;;;;4.68;2.80;;;23.60;56.80;;;;;;4951182;28;20047;-52
2021/10/15 09:50:09;;;;;;;5.40;3.03;;;23.50;53.20;;;;;;4967464;28;20489;-55
2021/10/15 09:52:50;;;;;;;4.93;3.20;;;23.40;51.30;;;;;;4961849;28;20105;-59
2021/10/15 09:55:17;;;;;;;4.53;2.85;;;23.40;50.90;;;;;;4960667;28;20034;-54
2021/10/15 09:57:45;;;;;;;4.63;3.30;;;23.30;50.80;;;;;;4969643;28;20042;-56
2021/10/15 10:00:27;;;;;;;4.82;3.00;;;23.30;50.40;;;;;;4965417;28;20023;-52
2021/10/15 10:02:53;;;;;;;4.72;3.20;;;23.30;50.30;;;;;;4985309;28;20018;-53
2021/10/15 10:05:20;;;;;;;4.82;2.95;;;23.20;49.70;;;;;;4992033;28;20129;-58
2021/10/15 10:07:51;;;;;;;4.43;2.90;;;23.20;49.50;;;;;;4983672;28;20061;-59
2021/10/15 10:10:21;;;;;;;5.20;2.97;;;23.20;49.70;;;;;;4995141;28;20063;-58
2021/10/15 10:12:48;;;;;;;5.13;2.92;;;23.10;49.70;;;;;;4999320;28;20092;-53
2021/10/15 10:15:17;;;;;;;4.88;3.13;;;23.10;50.00;;;;;;4998335;28;20674;-59
2021/10/15 10:18:26;;;;;;;4.95;2.97;;;23.10;49.90;;;;;;4989403;28;20031;-54
2021/10/15 10:21:07;;;;;;;4.30;2.78;;;23.10;49.90;;;;;;4975287;28;20041;-56
2021/10/15 10:23:37;;;;;;;4.72;2.97;;;23.10;50.10;;;;;;4992307;28;20057;-58
2021/10/15 10:26:09;;;;;;;4.38;2.75;;;23.00;50.00;;;;;;4989338;28;20184;-57
2021/10/15 10:28:35;;;;;;;4.43;2.78;;;23.00;50.00;;;;;;4989554;28;20026;-57
2021/10/15 10:31:07;;;;;;;3.90;2.60;;;23.00;50.10;;;;;;4982468;28;20042;-50
2021/10/15 10:33:54;;;;;;;5.07;3.00;;;22.90;50.10;;;;;;4997149;28;20030;-54
2021/10/15 10:36:20;;;;;;;4.88;3.15;;;22.90;50.10;;;;;;4988918;28;21109;-57
2021/10/15 10:38:46;;;;;;;3.97;2.60;;;22.90;50.20;;;;;;4983997;28;20049;-58
2021/10/15 10:41:14;;;;;;;4.07;2.80;;;22.90;50.20;;;;;;4980757;28;20041;-57
2021/10/15 10:43:43;;;;;;;4.93;2.75;;;22.90;50.30;;;;;;4985633;28;20030;-54
2021/10/15 10:46:08;;;;;;;4.60;2.88;;;22.90;50.40;;;;;;4986408;28;20038;-50
2021/10/15 10:48:46;;;;;;;4.57;3.10;;;22.90;50.40;;;;;;5000125;28;20548;-55
2021/10/15 10:51:19;;;;;;;3.38;2.45;;;22.90;50.50;;;;;;4984105;28;20081;-56
2021/10/15 10:54:03;;;;;;;3.70;2.35;;;22.80;50.50;;;;;;4981185;28;20108;-58
2021/10/15 10:56:50;;;;;;;3.97;2.67;;;22.90;50.60;;;;;;4982172;28;20356;-52
2021/10/15 10:59:22;;;;;;;4.03;2.70;;;22.90;50.40;;;;;;4993957;28;20104;-50
2021/10/15 11:01:48;;;;;;;4.50;2.78;;;22.80;50.40;;;;;;4997684;28;20119;-53
2021/10/15 11:04:27;;;;;;;3.97;2.67;;;22.80;50.50;;;;;;4990223;28;20289;-58
2021/10/15 11:07:21;;;;;;;3.92;2.38;;;22.80;50.60;;;;;;4982150;28;20199;-56
2021/10/15 11:10:02;;;;;;;3.85;2.30;;;22.80;50.60;;;;;;4990520;28;20125;-52
2021/10/15 11:12:27;;;;;;;3.90;2.50;;;22.80;50.60;;;;;;4983380;28;20054;-58
2021/10/15 11:15:06;;;;;;;3.97;2.70;;;22.80;50.70;;;;;;4982068;28;20073;-51
2021/10/15 11:17:35;;;;;;;4.07;2.70;;;22.80;50.80;;;;;;4987642;28;20042;-57
2021/10/15 11:20:30;;;;;;;4.68;2.55;;;22.80;50.80;;;;;;4992617;28;20062;-56
2021/10/15 11:23:10;;;;;;;4.13;2.80;;;22.80;50.80;;;;;;4996316;28;20038;-57
2021/10/15 11:25:41;;;;;;;3.60;2.20;;;22.80;50.90;;;;;;4988281;28;20030;-57
2021/10/15 11:28:13;;;;;;;3.83;2.50;;;22.80;50.90;;;;;;4987329;28;20088;-57
2021/10/15 11:30:43;;;;;;;3.67;2.30;;;22.80;51.00;;;;;;4982300;28;20046;-54
2021/10/15 11:33:12;;;;;;;5.05;2.80;;;22.80;51.00;;;;;;4992353;28;20105;-58
2021/10/15 11:35:40;;;;;;;3.88;2.45;;;22.70;51.00;;;;;;4992445;28;20100;-51
2021/10/15 11:38:07;;;;;;;3.42;2.20;;;22.70;51.20;;;;;;4988256;28;20053;-58
2021/10/15 11:40:36;;;;;;;3.83;2.58;;;22.70;51.30;;;;;;4986218;28;20022;-58
2021/10/15 11:43:24;;;;;;;3.30;2.30;;;22.70;51.40;;;;;;4990619;28;20030;-55
2021/10/15 11:45:56;;;;;;;5.35;2.70;;;22.70;51.30;;;;;;4988482;28;20034;-58
2021/10/15 11:48:39;;;;;;;3.35;2.33;;;22.70;51.30;;;;;;4987837;28;20030;-58
2021/10/15 11:51:07;;;;;;;3.88;2.20;;;22.70;51.30;;;;;;4995834;28;20100;-56
2021/10/15 11:53:39;;;;;;;3.92;2.45;;;22.60;51.20;;;;;;4981168;28;20041;-56
2021/10/15 11:56:07;;;;;;;4.00;2.35;;;22.70;51.30;;;;;;4986743;28;20132;-54
2021/10/15 11:58:37;;;;;;;4.22;2.30;;;22.70;51.40;;;;;;4993336;28;20034;-58
2021/10/15 12:01:19;;;;;;;3.22;2.22;;;22.70;51.30;;;;;;5004810;28;20117;-53
2021/10/15 12:03:52;;;;;;;4.30;2.50;;;22.70;51.40;;;;;;4986944;28;20087;-58
2021/10/15 12:06:19;;;;;;;3.70;2.42;;;22.70;51.40;;;;;;4986224;28;20244;-58
2021/10/15 12:08:47;;;;;;;3.10;1.90;;;22.70;51.50;;;;;;4986331;28;20126;-54
2021/10/15 12:11:14;;;;;;;3.90;2.15;;;22.70;51.50;;;;;;4988360;28;20041;-59
2021/10/15 12:13:40;;;;;;;3.00;2.10;;;22.70;51.50;;;;;;4990675;28;20030;-59
2021/10/15 12:16:20;;;;;;;2.90;2.00;;;22.70;51.60;;;;;;4990668;28;20568;-55
2021/10/15 12:18:54;;;;;;;3.20;1.80;;;22.70;51.60;;;;;;4995725;28;20034;-60
2021/10/15 12:21:20;;;;;;;3.38;2.20;;;22.70;51.70;;;;;;4979604;28;20105;-59
2021/10/15 12:23:53;;;;;;;3.47;1.92;;;22.70;51.60;;;;;;4984380;28;20125;-57
2021/10/15 12:26:20;;;;;;;3.28;1.98;;;22.70;51.80;;;;;;4987522;28;20387;-54
2021/10/15 12:28:45;;;;;;;3.08;2.25;;;22.70;51.70;;;;;;4989780;28;20070;-57
2021/10/15 12:31:29;;;;;;;3.88;2.20;;;22.70;51.60;;;;;;4989201;28;20041;-55
2021/10/15 12:34:02;;;;;;;3.20;2.10;;;22.70;51.60;;;;;;4986008;28;20027;-59
2021/10/15 12:36:27;;;;;;;3.28;2.00;;;22.70;51.70;;;;;;4996847;28;20026;-53
2021/10/15 12:39:14;;;;;;;3.97;2.33;;;22.60;51.70;;;;;;4986880;28;20383;-54
2021/10/15 12:41:39;;;;;;;3.30;2.08;;;22.60;51.70;;;;;;4987300;28;20037;-51
2021/10/15 12:44:29;;;;;;;4.45;2.20;;;22.60;51.70;;;;;;4989281;28;20101;-57
2021/10/15 12:47:05;;;;;;;3.15;2.00;;;22.60;51.80;;;;;;4995593;28;20066;-58
2021/10/15 12:49:52;;;;;;;3.30;2.10;;;22.60;51.80;;;;;;4993066;28;20049;-59
2021/10/15 12:52:31;;;;;;;4.20;2.45;;;22.60;51.90;;;;;;4983671;28;20054;-58
2021/10/15 12:54:57;;;;;;;;;;;22.50;51.80;;;;;;4981859;28;20489;-58
2021/10/15 12:57:34;;;;;;;3.22;2.38;;;22.50;51.80;;;;;;4990499;28;19914;-59
2021/10/15 13:00:03;;;;;;;2.92;1.83;;;22.50;51.90;;;;;;4981427;28;20325;-57
2021/10/15 13:02:30;;;;;;;3.03;1.90;;;22.50;52.00;;;;;;4986127;28;20092;-57